Time;durP1;ratioP1;P1;durP2;ratioP2;P2;SDS_P1;SDS_P2;PMS_P1;PMS_P2;Temp;Humidity;BMP_temperature;BMP_pressure;BME280_temperature;BME280_humidity;BME280_pressure;Samples;Min_cycle;Max_cycle;Signal;HPM_P1;HPM_P2
2024/01/28 00:02:24;;;;;;;19.52;7.30;;;;;;;;;;5060614;28;20180;-86
2024/01/28 00:04:50;;;;;;;15.43;6.60;;;;;;;;;;5078988;28;20293;-84
2024/01/28 00:07:16;;;;;;;21.02;6.97;;;;;;;;;;5061639;28;20208;-84
2024/01/28 00:09:42;;;;;;;16.88;6.00;;;;;;;;;;5079093;28;20217;-84
2024/01/28 00:12:09;;;;;;;13.40;5.50;;;;;;;;;;5079409;28;20176;-84
2024/01/28 00:14:35;;;;;;;13.85;5.32;;;;;;;;;;5078874;28;20544;-86
2024/01/28 00:17:01;;;;;;;19.67;6.60;;;;;;;;;;5079163;28;20187;-84
2024/01/28 00:19:27;;;;;;;9.33;5.67;;;;;;;;;;5078716;28;20407;-85
2024/01/28 00:21:53;;;;;;;14.80;5.90;;;;;;;;;;5079018;28;20417;-84
2024/01/28 00:24:20;;;;;;;15.27;5.27;;;;;;;;;;5078028;28;20421;-84
2024/01/28 00:26:46;;;;;;;16.33;4.75;;;;;;;;;;5060471;28;20423;-85
2024/01/28 00:29:12;;;;;;;10.13;5.22;;;;;;;;;;5078487;28;20235;-85
2024/01/28 00:31:38;;;;;;;10.52;4.85;;;;;;;;;;5078625;28;20236;-84
2024/01/28 00:34:04;;;;;;;9.07;4.70;;;;;;;;;;5078492;28;20187;-84
2024/01/28 00:36:31;;;;;;;15.93;4.43;;;;;;;;;;5060245;28;20511;-84
2024/01/28 00:38:57;;;;;;;13.13;5.25;;;;;;;;;;5060309;28;20501;-85
2024/01/28 00:41:26;;;;;;;10.53;4.87;;;;;;;;;;5078493;28;20186;-84
2024/01/28 00:43:52;;;;;;;12.05;4.28;;;;;;;;;;5078388;28;20748;-84
2024/01/28 00:46:18;;;;;;;16.58;5.43;;;;;;;;;;5078793;28;20234;-84
2024/01/28 00:48:44;;;;;;;8.70;5.53;;;;;;;;;;5059722;28;20506;-84
2024/01/28 00:51:10;;;;;;;19.25;5.80;;;;;;;;;;5077851;28;20182;-83
2024/01/28 00:53:36;;;;;;;9.63;4.78;;;;;;;;;;5078183;28;20181;-84
2024/01/28 00:56:02;;;;;;;13.98;5.75;;;;;;;;;;5077826;28;20228;-84
2024/01/28 00:58:29;;;;;;;14.65;5.57;;;;;;;;;;5078290;28;20184;-85
2024/01/28 01:00:55;;;;;;;13.40;5.80;;;;;;;;;;5060340;28;20583;-85
2024/01/28 01:03:21;;;;;;;14.48;6.43;;;;;;;;;;5077985;28;20173;-84
2024/01/28 01:05:47;;;;;;;21.38;6.75;;;;;;;;;;5077537;28;20652;-84
2024/01/28 01:08:13;;;;;;;13.40;5.05;;;;;;;;;;5077822;28;20269;-84
2024/01/28 01:10:41;;;;;;;11.07;5.32;;;;;;;;;;5077635;28;20193;-84
2024/01/28 01:13:07;;;;;;;19.63;4.97;;;;;;;;;;5077688;28;20174;-84
2024/01/28 01:15:33;;;;;;;9.87;4.27;;;;;;;;;;5077239;28;20702;-84
2024/01/28 01:17:59;;;;;;;13.32;4.60;;;;;;;;;;5078166;28;20415;-84
2024/01/28 01:20:25;;;;;;;9.27;4.95;;;;;;;;;;5077551;28;20216;-83
2024/01/28 01:22:53;;;;;;;14.70;4.97;;;;;;;;;;5042745;28;20201;-84
2024/01/28 01:25:19;;;;;;;8.00;5.13;;;;;;;;;;5077639;28;20528;-84
2024/01/28 01:27:47;;;;;;;8.40;4.97;;;;;;;;;;5077652;28;20169;-84
2024/01/28 01:30:13;;;;;;;13.65;4.82;;;;;;;;;;5077751;28;20227;-84
2024/01/28 01:32:40;;;;;;;11.70;4.70;;;;;;;;;;5042965;28;20231;-84
2024/01/28 01:35:07;;;;;;;15.10;4.32;;;;;;;;;;5060260;28;20462;-83
2024/01/28 01:37:33;;;;;;;17.08;5.22;;;;;;;;;;5076852;28;20181;-84
2024/01/28 01:40:00;;;;;;;9.23;4.07;;;;;;;;;;5077308;28;20584;-84
2024/01/28 01:42:26;;;;;;;11.20;4.40;;;;;;;;;;5077277;28;20416;-84
2024/01/28 01:44:52;;;;;;;11.77;4.55;;;;;;;;;;5077107;28;20200;-84
2024/01/28 01:47:18;;;;;;;7.72;4.75;;;;;;;;;;5077072;28;20173;-84
2024/01/28 01:49:45;;;;;;;9.93;3.65;;;;;;;;;;5077290;28;20182;-84
2024/01/28 01:52:11;;;;;;;10.48;4.20;;;;;;;;;;5057585;28;20269;-84
2024/01/28 01:54:37;;;;;;;8.25;4.55;;;;;;;;;;5056892;28;20210;-84
2024/01/28 01:57:04;;;;;;;13.40;4.13;;;;;;;;;;5038893;28;20191;-83
2024/01/28 01:59:30;;;;;;;11.88;4.10;;;;;;;;;;5057551;28;20524;-84
2024/01/28 02:01:58;;;;;;;11.15;4.78;;;;;;;;;;5057130;28;20235;-84
2024/01/28 02:04:24;;;;;;;14.57;5.00;;;;;;;;;;5038681;28;20250;-84
2024/01/28 02:06:50;;;;;;;9.50;4.63;;;;;;;;;;5056792;28;20211;-84
2024/01/28 02:09:16;;;;;;;14.43;4.90;;;;;;;;;;5056983;28;20183;-85
2024/01/28 02:11:42;;;;;;;11.27;4.80;;;;;;;;;;5056835;28;20181;-84
2024/01/28 02:14:08;;;;;;;14.63;5.60;;;;;;;;;;5039262;28;20500;-84
2024/01/28 02:16:34;;;;;;;19.00;5.40;;;;;;;;;;5074515;28;20250;-84
2024/01/28 02:19:00;;;;;;;9.90;4.85;;;;;;;;;;5076876;28;20763;-84
2024/01/28 02:21:26;;;;;;;15.73;5.60;;;;;;;;;;5076307;28;20175;-84
2024/01/28 02:23:52;;;;;;;14.40;5.90;;;;;;;;;;5076362;28;20511;-84
2024/01/28 02:26:18;;;;;;;15.52;6.10;;;;;;;;;;5076929;28;20415;-84
2024/01/28 02:28:44;;;;;;;13.20;5.60;;;;;;;;;;5048427;28;20180;-84
2024/01/28 02:31:10;;;;;;;14.55;5.25;;;;;;;;;;5056586;28;20430;-83
2024/01/28 02:33:36;;;;;;;16.38;7.13;;;;;;;;;;5038424;28;20272;-84
2024/01/28 02:36:02;;;;;;;12.23;5.33;;;;;;;;;;5038221;28;20277;-84
2024/01/28 02:38:28;;;;;;;16.13;4.88;;;;;;;;;;5057506;28;20496;-84
2024/01/28 02:40:55;;;;;;;13.13;6.30;;;;;;;;;;5056441;28;20188;-84
2024/01/28 02:43:21;;;;;;;11.00;5.72;;;;;;;;;;5056739;28;20420;-83
2024/01/28 02:45:47;;;;;;;16.80;6.10;;;;;;;;;;5056356;28;20238;-84
2024/01/28 02:48:13;;;;;;;12.37;5.23;;;;;;;;;;5056258;28;20412;-84
2024/01/28 02:50:39;;;;;;;11.47;5.40;;;;;;;;;;5056382;28;20486;-84
2024/01/28 02:53:05;;;;;;;8.23;5.50;;;;;;;;;;5057047;28;20420;-84
2024/01/28 02:55:34;;;;;;;12.77;5.60;;;;;;;;;;5056267;28;20950;-84
2024/01/28 02:58:00;;;;;;;13.68;5.60;;;;;;;;;;5072852;28;20203;-84
2024/01/28 03:00:26;;;;;;;15.73;5.70;;;;;;;;;;5076802;28;20189;-83
2024/01/28 03:02:52;;;;;;;11.77;5.32;;;;;;;;;;5058221;28;20416;-84
2024/01/28 03:05:18;;;;;;;10.63;5.30;;;;;;;;;;5076126;28;20177;-84
2024/01/28 03:07:44;;;;;;;10.63;5.53;;;;;;;;;;5076378;28;20886;-84
2024/01/28 03:10:10;;;;;;;9.80;5.00;;;;;;;;;;5076791;28;20227;-84
2024/01/28 03:12:36;;;;;;;13.60;5.93;;;;;;;;;;5076809;28;20902;-84
2024/01/28 03:15:03;;;;;;;9.82;5.65;;;;;;;;;;5076297;28;20508;-84
2024/01/28 03:17:29;;;;;;;10.07;5.28;;;;;;;;;;5075598;28;20184;-85
2024/01/28 03:19:55;;;;;;;13.53;5.40;;;;;;;;;;5075485;28;20176;-84
2024/01/28 03:22:21;;;;;;;11.50;5.75;;;;;;;;;;5076443;28;20879;-84
2024/01/28 03:24:48;;;;;;;17.90;5.00;;;;;;;;;;5076290;28;20189;-84
2024/01/28 03:27:14;;;;;;;14.90;5.07;;;;;;;;;;5076045;28;20168;-83
2024/01/28 03:29:40;;;;;;;12.13;4.65;;;;;;;;;;5075677;28;20173;-84
2024/01/28 03:32:06;;;;;;;9.23;4.67;;;;;;;;;;5058835;28;20188;-84
2024/01/28 03:34:32;;;;;;;11.20;4.53;;;;;;;;;;5058761;28;20458;-83
2024/01/28 03:36:58;;;;;;;14.20;4.75;;;;;;;;;;5076820;28;20188;-83
2024/01/28 03:39:24;;;;;;;9.57;4.90;;;;;;;;;;5073136;28;20592;-83
2024/01/28 03:41:50;;;;;;;8.63;4.67;;;;;;;;;;5059331;28;20190;-84
2024/01/28 03:44:22;;;;;;;12.30;5.50;;;;;;;;;;5058521;28;20403;-84
2024/01/28 03:46:48;;;;;;;16.30;5.32;;;;;;;;;;5075765;28;20771;-83
2024/01/28 03:49:14;;;;;;;14.25;5.03;;;;;;;;;;5076549;28;20188;-84
2024/01/28 03:51:40;;;;;;;9.65;4.15;;;;;;;;;;5058783;28;20181;-84
2024/01/28 03:54:07;;;;;;;9.82;5.47;;;;;;;;;;5076497;28;20186;-84
2024/01/28 03:56:34;;;;;;;12.73;4.75;;;;;;;;;;5058578;28;20182;-84
2024/01/28 03:59:00;;;;;;;5.88;4.72;;;;;;;;;;5075201;28;20173;-83
2024/01/28 04:01:30;;;;;;;11.38;4.65;;;;;;;;;;5061127;28;20179;-84
2024/01/28 04:03:57;;;;;;;11.75;5.78;;;;;;;;;;5079466;28;20177;-84
2024/01/28 04:06:23;;;;;;;10.05;5.60;;;;;;;;;;5080110;28;20270;-83
2024/01/28 04:08:49;;;;;;;18.65;5.60;;;;;;;;;;5079603;28;20185;-84
2024/01/28 04:11:15;;;;;;;10.20;5.00;;;;;;;;;;5079675;28;20267;-84
2024/01/28 04:13:41;;;;;;;11.27;5.15;;;;;;;;;;5061521;28;20586;-85
2024/01/28 04:16:07;;;;;;;14.70;4.83;;;;;;;;;;5062023;28;20202;-83
2024/01/28 04:18:33;;;;;;;10.83;4.50;;;;;;;;;;5079639;28;20407;-83
2024/01/28 04:20:59;;;;;;;11.17;6.07;;;;;;;;;;5079396;28;20887;-84
2024/01/28 04:23:25;;;;;;;10.10;5.17;;;;;;;;;;5061460;28;20408;-84
2024/01/28 04:25:51;;;;;;;15.10;5.20;;;;;;;;;;5079647;28;20766;-84
2024/01/28 04:28:17;;;;;;;10.73;4.50;;;;;;;;;;5078998;28;20180;-84
2024/01/28 04:30:43;;;;;;;13.18;5.30;;;;;;;;;;5079189;28;20742;-84
2024/01/28 04:33:09;;;;;;;11.20;4.70;;;;;;;;;;5079556;28;20177;-84
2024/01/28 04:35:35;;;;;;;9.20;4.80;;;;;;;;;;5079425;28;20464;-84
2024/01/28 04:38:01;;;;;;;13.10;4.97;;;;;;;;;;5061012;28;20451;-84
2024/01/28 04:40:27;;;;;;;8.90;4.18;;;;;;;;;;5061331;28;20822;-84
2024/01/28 04:42:53;;;;;;;10.23;4.80;;;;;;;;;;5078931;28;20181;-84
2024/01/28 04:45:19;;;;;;;12.93;4.40;;;;;;;;;;5079342;28;20204;-83
2024/01/28 04:47:45;;;;;;;7.07;4.47;;;;;;;;;;5079039;28;20411;-86
2024/01/28 04:50:12;;;;;;;9.55;4.70;;;;;;;;;;5061501;28;20417;-84
2024/01/28 04:52:38;;;;;;;11.00;4.30;;;;;;;;;;5061368;28;20226;-84
2024/01/28 04:55:04;;;;;;;10.27;4.30;;;;;;;;;;5078524;28;20210;-84
2024/01/28 04:57:30;;;;;;;16.25;5.00;;;;;;;;;;5078949;28;20185;-84
2024/01/28 04:59:56;;;;;;;9.05;4.38;;;;;;;;;;5078562;28;20173;-85
2024/01/28 05:02:22;;;;;;;15.50;4.50;;;;;;;;;;5061058;28;20182;-84
2024/01/28 05:04:48;;;;;;;10.60;3.83;;;;;;;;;;5060535;28;20404;-84
2024/01/28 05:07:16;;;;;;;10.40;4.70;;;;;;;;;;5050919;28;20405;-83
2024/01/28 05:09:42;;;;;;;11.13;4.78;;;;;;;;;;5058795;28;20511;-88
2024/01/28 05:12:08;;;;;;;9.38;4.90;;;;;;;;;;5058070;28;20180;-84
2024/01/28 05:14:34;;;;;;;8.73;4.78;;;;;;;;;;5058847;28;20214;-84
2024/01/28 05:17:01;;;;;;;6.03;4.38;;;;;;;;;;5058777;28;20173;-84
2024/01/28 05:19:27;;;;;;;11.48;4.30;;;;;;;;;;5058888;28;20175;-83
2024/01/28 05:21:53;;;;;;;10.93;5.27;;;;;;;;;;5058289;28;20186;-84
2024/01/28 05:24:19;;;;;;;12.57;4.80;;;;;;;;;;5040532;28;20405;-84
2024/01/28 05:26:45;;;;;;;15.48;5.20;;;;;;;;;;5024363;28;20175;-85
2024/01/28 05:29:11;;;;;;;12.60;4.75;;;;;;;;;;5059180;28;20243;-84
2024/01/28 05:31:37;;;;;;;8.00;4.60;;;;;;;;;;5058522;28;20182;-83
2024/01/28 05:34:03;;;;;;;16.02;5.65;;;;;;;;;;5058138;28;20402;-84
2024/01/28 05:36:29;;;;;;;17.27;4.97;;;;;;;;;;5061023;28;20552;-83
2024/01/28 05:38:55;;;;;;;10.65;4.28;;;;;;;;;;5058544;28;20291;-84
2024/01/28 05:41:22;;;;;;;8.95;4.72;;;;;;;;;;5057832;28;20229;-83
2024/01/28 05:43:48;;;;;;;12.18;4.60;;;;;;;;;;5057655;28;20223;-84
2024/01/28 05:46:13;;;;;;;6.40;4.23;;;;;;;;;;5064084;28;20185;-84
2024/01/28 05:48:42;;;;;;;11.33;4.60;;;;;;;;;;5078409;28;20499;-84
2024/01/28 05:51:08;;;;;;;13.35;4.60;;;;;;;;;;5059864;28;20421;-84
2024/01/28 05:53:33;;;;;;;9.43;4.30;;;;;;;;;;5074320;28;20641;-83
2024/01/28 05:56:00;;;;;;;13.90;4.40;;;;;;;;;;5079271;28;20862;-85
2024/01/28 05:58:25;;;;;;;10.60;4.60;;;;;;;;;;5097915;28;20452;-84
2024/01/28 06:00:51;;;;;;;14.57;4.97;;;;;;;;;;5080188;28;20180;-84
2024/01/28 06:03:17;;;;;;;13.88;5.18;;;;;;;;;;5098212;28;20418;-83
2024/01/28 06:05:43;;;;;;;11.93;4.50;;;;;;;;;;5097870;28;20551;-84
2024/01/28 06:08:09;;;;;;;8.60;4.45;;;;;;;;;;5097574;28;20457;-84
2024/01/28 06:10:36;;;;;;;11.52;4.70;;;;;;;;;;5079433;28;20214;-84
2024/01/28 06:13:02;;;;;;;12.63;4.68;;;;;;;;;;5050224;28;20181;-84
2024/01/28 06:15:28;;;;;;;11.95;5.43;;;;;;;;;;5077728;28;20204;-83
2024/01/28 06:17:55;;;;;;;9.38;4.65;;;;;;;;;;5049182;28;20197;-84
2024/01/28 06:20:20;;;;;;;10.98;5.15;;;;;;;;;;5097863;28;20175;-83
2024/01/28 06:22:46;;;;;;;10.65;4.90;;;;;;;;;;5096964;28;20210;-85
2024/01/28 06:25:12;;;;;;;9.77;4.43;;;;;;;;;;5063447;28;20180;-84
2024/01/28 06:27:38;;;;;;;7.97;5.10;;;;;;;;;;5085718;28;20190;-84
2024/01/28 06:30:05;;;;;;;12.07;5.80;;;;;;;;;;5076601;28;20178;-84
2024/01/28 06:32:32;;;;;;;9.93;5.18;;;;;;;;;;5057723;28;20443;-84
2024/01/28 06:34:58;;;;;;;8.13;4.32;;;;;;;;;;5057126;28;20209;-84
2024/01/28 06:37:25;;;;;;;9.77;4.30;;;;;;;;;;5057278;28;20265;-84
2024/01/28 06:39:51;;;;;;;8.70;4.78;;;;;;;;;;5056498;28;20214;-84
2024/01/28 06:42:20;;;;;;;11.70;5.65;;;;;;;;;;5057467;28;20321;-84
2024/01/28 06:44:47;;;;;;;9.48;5.03;;;;;;;;;;5057098;28;20536;-84
2024/01/28 06:47:13;;;;;;;11.77;4.85;;;;;;;;;;5057420;28;20180;-84
2024/01/28 06:49:39;;;;;;;13.23;5.50;;;;;;;;;;5057916;28;20579;-84
2024/01/28 06:52:05;;;;;;;9.77;4.70;;;;;;;;;;5073044;28;20188;-84
2024/01/28 06:54:31;;;;;;;12.27;4.63;;;;;;;;;;5059431;28;20273;-84
2024/01/28 06:56:57;;;;;;;11.90;5.57;;;;;;;;;;5077318;28;20213;-84
2024/01/28 06:59:23;;;;;;;10.53;4.03;;;;;;;;;;5076980;28;20200;-84
2024/01/28 07:01:49;;;;;;;6.80;3.85;;;;;;;;;;5076434;28;20903;-85
2024/01/28 07:04:15;;;;;;;7.32;3.78;;;;;;;;;;5076801;28;20186;-84
2024/01/28 07:06:41;;;;;;;17.03;4.47;;;;;;;;;;5077100;28;20182;-85
2024/01/28 07:09:08;;;;;;;10.23;4.20;;;;;;;;;;5059260;28;20499;-84
2024/01/28 07:11:34;;;;;;;10.27;4.03;;;;;;;;;;5058903;28;20403;-84
2024/01/28 07:14:00;;;;;;;6.43;4.53;;;;;;;;;;5065211;28;20193;-84
2024/01/28 07:16:26;;;;;;;14.23;4.10;;;;;;;;;;5056767;28;20552;-84
2024/01/28 07:18:52;;;;;;;5.93;4.20;;;;;;;;;;5039035;28;20413;-85
2024/01/28 07:21:18;;;;;;;7.75;3.75;;;;;;;;;;5038818;28;20428;-84
2024/01/28 07:23:44;;;;;;;13.43;4.50;;;;;;;;;;5056601;28;20189;-84
2024/01/28 07:26:10;;;;;;;9.20;4.75;;;;;;;;;;5056412;28;20184;-84
2024/01/28 07:28:36;;;;;;;7.13;4.65;;;;;;;;;;5038903;28;20180;-84
2024/01/28 07:31:03;;;;;;;11.13;4.15;;;;;;;;;;5056455;28;20221;-84
2024/01/28 07:33:29;;;;;;;9.20;4.93;;;;;;;;;;5051589;28;20189;-84
2024/01/28 07:35:55;;;;;;;4.80;3.77;;;;;;;;;;5031526;28;20205;-84
2024/01/28 07:38:21;;;;;;;13.88;5.07;;;;;;;;;;5045801;28;20490;-84
2024/01/28 07:40:47;;;;;;;7.90;4.53;;;;;;;;;;5062952;28;20649;-84
2024/01/28 07:43:13;;;;;;;11.10;5.07;;;;;;;;;;5080561;28;20468;-84
2024/01/28 07:45:39;;;;;;;10.53;4.13;;;;;;;;;;5062533;28;20413;-83
2024/01/28 07:48:05;;;;;;;9.50;4.33;;;;;;;;;;5079873;28;20407;-84
2024/01/28 07:50:31;;;;;;;12.63;5.70;;;;;;;;;;5062823;28;20428;-83
2024/01/28 07:52:57;;;;;;;6.82;5.65;;;;;;;;;;5062108;28;20179;-84
2024/01/28 07:55:23;;;;;;;10.10;4.30;;;;;;;;;;5080258;28;20215;-84
2024/01/28 07:57:48;;;;;;;13.73;4.70;;;;;;;;;;5062390;28;21028;-83
2024/01/28 08:00:15;;;;;;;12.30;5.13;;;;;;;;;;5080204;28;20414;-83
2024/01/28 08:02:41;;;;;;;6.00;5.22;;;;;;;;;;5079737;28;20413;-83
2024/01/28 08:05:08;;;;;;;9.67;4.93;;;;;;;;;;5061743;28;20518;-84
2024/01/28 08:07:34;;;;;;;6.57;4.68;;;;;;;;;;5061814;28;20429;-84
2024/01/28 08:10:01;;;;;;;10.13;4.43;;;;;;;;;;5080157;28;20180;-84
2024/01/28 08:12:27;;;;;;;9.73;5.05;;;;;;;;;;5080165;28;20757;-84
2024/01/28 08:14:53;;;;;;;11.90;5.00;;;;;;;;;;5079721;28;20203;-87
2024/01/28 08:17:19;;;;;;;11.00;4.73;;;;;;;;;;5079750;28;20411;-84
2024/01/28 08:19:45;;;;;;;14.23;5.13;;;;;;;;;;5079549;28;20920;-84
2024/01/28 08:22:12;;;;;;;10.47;4.70;;;;;;;;;;5061744;28;20188;-80
2024/01/28 08:24:38;;;;;;;12.50;5.22;;;;;;;;;;5080846;28;20408;-79
2024/01/28 08:27:04;;;;;;;8.37;5.43;;;;;;;;;;5079422;28;20615;-81
2024/01/28 08:29:30;;;;;;;9.70;5.90;;;;;;;;;;5079778;28;20410;-81
2024/01/28 08:31:57;;;;;;;7.95;5.10;;;;;;;;;;5079752;28;20176;-82
2024/01/28 08:34:23;;;;;;;9.85;4.63;;;;;;;;;;5089512;28;20191;-82
2024/01/28 08:36:50;;;;;;;8.40;4.53;;;;;;;;;;5099909;28;20180;-81
2024/01/28 08:39:16;;;;;;;12.52;5.35;;;;;;;;;;5099467;28;20239;-82
2024/01/28 08:41:42;;;;;;;11.98;5.15;;;;;;;;;;5100300;28;20174;-81
2024/01/28 08:44:09;;;;;;;7.00;4.95;;;;;;;;;;5100352;28;20176;-81
2024/01/28 08:46:39;;;;;;;7.30;4.88;;;;;;;;;;5099114;28;20175;-82
2024/01/28 08:49:05;;;;;;;9.82;4.00;;;;;;;;;;5099264;28;20188;-81
2024/01/28 08:51:31;;;;;;;7.60;4.40;;;;;;;;;;5100177;28;20194;-81
2024/01/28 08:53:57;;;;;;;11.40;5.90;;;;;;;;;;5099824;28;20504;-81
2024/01/28 08:56:23;;;;;;;19.13;5.60;;;;;;;;;;5099653;28;20473;-82
2024/01/28 08:58:49;;;;;;;9.52;4.93;;;;;;;;;;5099605;28;20406;-81
2024/01/28 09:01:15;;;;;;;7.83;4.37;;;;;;;;;;5099786;28;20378;-81
2024/01/28 09:03:41;;;;;;;7.43;4.13;;;;;;;;;;5099574;28;20402;-81
2024/01/28 09:06:07;;;;;;;7.75;4.53;;;;;;;;;;5078152;28;20434;-82
2024/01/28 09:08:33;;;;;;;9.73;4.30;;;;;;;;;;5079392;28;20184;-81
2024/01/28 09:11:00;;;;;;;9.23;4.03;;;;;;;;;;5079407;28;20183;-81
2024/01/28 09:13:27;;;;;;;8.63;3.85;;;;;;;;;;5078983;28;20188;-81
2024/01/28 09:15:56;;;;;;;7.30;4.25;;;;;;;;;;5078957;28;20284;-82
2024/01/28 09:18:22;;;;;;;10.57;4.03;;;;;;;;;;5061349;28;20181;-81
2024/01/28 09:20:48;;;;;;;9.83;3.80;;;;;;;;;;5079564;28;20188;-81
2024/01/28 09:23:13;;;;;;;9.43;3.83;;;;;;;;;;5079144;28;20488;-82
2024/01/28 09:25:39;;;;;;;7.97;4.40;;;;;;;;;;5079272;28;20411;-81
2024/01/28 09:28:07;;;;;;;6.90;3.50;;;;;;;;;;5060794;28;20451;-82
2024/01/28 09:30:33;;;;;;;8.70;4.07;;;;;;;;;;5079324;28;20409;-82
2024/01/28 09:32:59;;;;;;;9.20;3.47;;;;;;;;;;5079495;28;20176;-82
2024/01/28 09:35:25;;;;;;;7.10;3.33;;;;;;;;;;5079194;28;20478;-82
2024/01/28 09:37:52;;;;;;;11.43;3.80;;;;;;;;;;5078727;28;20427;-82
2024/01/28 09:40:18;;;;;;;7.97;4.57;;;;;;;;;;5078376;28;20534;-82
2024/01/28 09:42:53;;;;;;;7.60;3.33;;;;;;;;;;5078625;28;20185;-83
2024/01/28 09:45:19;;;;;;;10.85;3.92;;;;;;;;;;5071487;28;20200;-82
2024/01/28 09:47:45;;;;;;;6.95;3.33;;;;;;;;;;5058809;28;20181;-82
2024/01/28 09:50:12;;;;;;;7.85;4.03;;;;;;;;;;5077469;28;20643;-82
2024/01/28 09:52:38;;;;;;;9.80;3.38;;;;;;;;;;5078521;28;20180;-83
2024/01/28 09:55:05;;;;;;;5.90;3.57;;;;;;;;;;5078170;28;20682;-83
2024/01/28 09:57:31;;;;;;;5.15;3.13;;;;;;;;;;5078302;28;20418;-82
2024/01/28 09:59:57;;;;;;;7.13;4.05;;;;;;;;;;5078326;28;20179;-82
2024/01/28 10:02:24;;;;;;;4.43;3.30;;;;;;;;;;5067034;28;20182;-82
2024/01/28 10:04:50;;;;;;;6.40;3.63;;;;;;;;;;5058618;28;20579;-82
2024/01/28 10:07:19;;;;;;;6.30;3.20;;;;;;;;;;5058973;28;20245;-83
2024/01/28 10:09:45;;;;;;;9.90;3.50;;;;;;;;;;5040492;28;20207;-82
2024/01/28 10:12:11;;;;;;;7.18;3.00;;;;;;;;;;5057902;28;20190;-83
2024/01/28 10:14:37;;;;;;;5.43;3.20;;;;;;;;;;5056947;28;20553;-83
2024/01/28 10:17:03;;;;;;;7.53;3.40;;;;;;;;;;5062911;28;20428;-83
2024/01/28 10:19:29;;;;;;;8.02;2.90;;;;;;;;;;5076798;28;20402;-82
2024/01/28 10:21:56;;;;;;;9.17;2.87;;;;;;;;;;5076447;28;20257;-83
2024/01/28 10:24:23;;;;;;;5.53;3.60;;;;;;;;;;5075900;28;20490;-83
2024/01/28 10:26:49;;;;;;;3.77;2.63;;;;;;;;;;5075703;28;20629;-83
2024/01/28 10:29:15;;;;;;;5.40;2.77;;;;;;;;;;5076066;28;20402;-83
2024/01/28 10:31:41;;;;;;;5.13;2.90;;;;;;;;;;5076032;28;20486;-82
2024/01/28 10:34:08;;;;;;;10.30;3.10;;;;;;;;;;5075841;28;20469;-81
2024/01/28 10:36:34;;;;;;;5.47;3.20;;;;;;;;;;5075919;28;20462;-82
2024/01/28 10:39:04;;;;;;;5.07;3.33;;;;;;;;;;5076051;28;20315;-82
2024/01/28 10:41:32;;;;;;;6.43;3.00;;;;;;;;;;5075374;28;20486;-83
2024/01/28 10:43:58;;;;;;;6.97;3.60;;;;;;;;;;5075274;28;20423;-83
2024/01/28 10:46:28;;;;;;;5.93;2.90;;;;;;;;;;5075607;28;20468;-82
2024/01/28 10:48:57;;;;;;;5.80;2.43;;;;;;;;;;5075625;28;20409;-82
2024/01/28 10:51:23;;;;;;;5.47;3.17;;;;;;;;;;5075001;28;20407;-83
2024/01/28 10:53:51;;;;;;;4.40;2.87;;;;;;;;;;5075204;28;20468;-83
2024/01/28 10:56:18;;;;;;;7.57;2.80;;;;;;;;;;5072663;28;20493;-81
2024/01/28 10:58:44;;;;;;;6.87;3.10;;;;;;;;;;5074084;28;20403;-81
2024/01/28 11:01:11;;;;;;;7.00;2.70;;;;;;;;;;5074606;28;20418;-81
2024/01/28 11:03:37;;;;;;;8.60;3.20;;;;;;;;;;5074872;28;20446;-80
2024/01/28 11:06:03;;;;;;;4.37;2.67;;;;;;;;;;5074197;28;20416;-90
2024/01/28 11:08:30;;;;;;;6.10;2.90;;;;;;;;;;5074100;28;20427;-82
2024/01/28 11:10:56;;;;;;;7.80;3.50;;;;;;;;;;5073633;28;20446;-82
2024/01/28 11:13:23;;;;;;;8.60;3.20;;;;;;;;;;5073768;28;20410;-82
2024/01/28 11:15:49;;;;;;;6.97;3.10;;;;;;;;;;5074563;28;20557;-81
2024/01/28 11:18:16;;;;;;;4.10;2.70;;;;;;;;;;5074192;28;20416;-81
2024/01/28 11:20:42;;;;;;;4.97;2.93;;;;;;;;;;5074027;28;20469;-81
2024/01/28 11:23:17;;;;;;;4.00;2.40;;;;;;;;;;5074351;28;20422;-82
2024/01/28 11:25:43;;;;;;;5.83;2.67;;;;;;;;;;5056168;28;20926;-81
2024/01/28 11:28:09;;;;;;;6.23;3.17;;;;;;;;;;5074075;28;20446;-82
2024/01/28 11:30:35;;;;;;;7.13;2.73;;;;;;;;;;5074283;28;20411;-82
2024/01/28 11:33:09;;;;;;;5.93;2.50;;;;;;;;;;5074370;28;20439;-81
2024/01/28 11:35:35;;;;;;;4.93;2.83;;;;;;;;;;5074256;28;20454;-81
2024/01/28 11:38:05;;;;;;;4.27;2.63;;;;;;;;;;5074538;28;20493;-81
2024/01/28 11:40:35;;;;;;;5.10;2.97;;;;;;;;;;5074728;28;20470;-81
2024/01/28 11:43:01;;;;;;;7.50;3.47;;;;;;;;;;5074121;28;20414;-81
2024/01/28 11:45:27;;;;;;;5.93;2.73;;;;;;;;;;5074624;28;20440;-81
2024/01/28 11:47:53;;;;;;;9.13;2.53;;;;;;;;;;5074997;28;20419;-82
2024/01/28 11:50:19;;;;;;;4.90;2.37;;;;;;;;;;5073994;28;20406;-81
2024/01/28 11:52:45;;;;;;;8.17;3.30;;;;;;;;;;5056228;28;20415;-81
2024/01/28 11:55:12;;;;;;;4.10;2.60;;;;;;;;;;5074416;28;20466;-82
2024/01/28 11:57:39;;;;;;;5.10;2.43;;;;;;;;;;5073731;28;20454;-81
2024/01/28 12:00:08;;;;;;;4.43;2.83;;;;;;;;;;5074015;28;20978;-81
2024/01/28 12:02:34;;;;;;;7.10;3.00;;;;;;;;;;5073822;28;20422;-82
2024/01/28 12:05:00;;;;;;;5.30;2.73;;;;;;;;;;5074077;28;20498;-82
2024/01/28 12:07:26;;;;;;;9.47;2.97;;;;;;;;;;5073341;28;20466;-82
2024/01/28 12:09:54;;;;;;;4.60;2.70;;;;;;;;;;5074046;28;20407;-81
2024/01/28 12:12:20;;;;;;;4.67;2.40;;;;;;;;;;5073446;28;20476;-81
2024/01/28 12:14:46;;;;;;;6.10;3.53;;;;;;;;;;5073615;28;20864;-81
2024/01/28 12:17:12;;;;;;;3.33;2.90;;;;;;;;;;5073648;28;20404;-82
2024/01/28 12:19:38;;;;;;;6.50;2.83;;;;;;;;;;5055761;28;20465;-82
2024/01/28 12:22:04;;;;;;;5.77;3.23;;;;;;;;;;5076146;28;20525;-82
2024/01/28 12:24:31;;;;;;;7.33;2.90;;;;;;;;;;5077460;28;20531;-81
2024/01/28 12:26:57;;;;;;;6.10;2.60;;;;;;;;;;5077337;28;20407;-81
2024/01/28 12:29:23;;;;;;;6.83;2.77;;;;;;;;;;5076738;28;20408;-81
2024/01/28 12:31:50;;;;;;;9.13;3.00;;;;;;;;;;5076433;28;20415;-81
2024/01/28 12:34:16;;;;;;;5.70;2.90;;;;;;;;;;5076718;28;20913;-82
2024/01/28 12:36:42;;;;;;;4.27;2.47;;;;;;;;;;5066950;28;20486;-81
2024/01/28 12:39:08;;;;;;;4.07;2.30;;;;;;;;;;5038756;28;21066;-82
2024/01/28 12:41:34;;;;;;;5.00;2.40;;;;;;;;;;5057139;28;20422;-81
2024/01/28 12:44:00;;;;;;;3.60;1.90;;;;;;;;;;5056925;28;20447;-81
2024/01/28 12:46:26;;;;;;;3.70;2.30;;;;;;;;;;5056742;28;20879;-81
2024/01/28 12:48:52;;;;;;;3.30;2.20;;;;;;;;;;5056992;28;20435;-81
2024/01/28 12:51:18;;;;;;;5.60;2.60;;;;;;;;;;5056700;28;20404;-81
2024/01/28 12:53:51;;;;;;;4.30;2.63;;;;;;;;;;5056605;28;20416;-81
2024/01/28 12:56:16;;;;;;;4.97;2.60;;;;;;;;;;5056336;28;20467;-81
2024/01/28 12:58:43;;;;;;;3.10;2.57;;;;;;;;;;5056849;28;20513;-82
2024/01/28 13:01:09;;;;;;;9.50;2.70;;;;;;;;;;5057108;28;20407;-81
2024/01/28 13:03:36;;;;;;;4.63;2.53;;;;;;;;;;5056551;28;20771;-82
2024/01/28 13:06:02;;;;;;;5.60;2.93;;;;;;;;;;5056702;28;20447;-81
2024/01/28 13:08:28;;;;;;;4.43;2.47;;;;;;;;;;5065808;28;20439;-81
2024/01/28 13:10:55;;;;;;;5.63;2.40;;;;;;;;;;5058866;28;20510;-81
2024/01/28 13:13:21;;;;;;;2.97;2.30;;;;;;;;;;5076397;28;20417;-82
2024/01/28 13:15:47;;;;;;;4.30;2.47;;;;;;;;;;5076147;28;20477;-81
2024/01/28 13:18:13;;;;;;;4.30;2.37;;;;;;;;;;5076433;28;20423;-82
2024/01/28 13:20:39;;;;;;;5.23;2.70;;;;;;;;;;5076680;28;20403;-81
2024/01/28 13:23:05;;;;;;;4.37;2.40;;;;;;;;;;5076596;28;20773;-81
2024/01/28 13:25:31;;;;;;;5.13;2.50;;;;;;;;;;5075908;28;20386;-81
2024/01/28 13:27:57;;;;;;;3.77;2.67;;;;;;;;;;5076026;28;20507;-81
2024/01/28 13:30:23;;;;;;;2.57;1.70;;;;;;;;;;5075532;28;20415;-82
2024/01/28 13:32:49;;;;;;;3.80;2.40;;;;;;;;;;5076110;28;20448;-81
2024/01/28 13:35:15;;;;;;;8.10;3.33;;;;;;;;;;5075723;28;20462;-82
2024/01/28 13:37:43;;;;;;;5.47;2.47;;;;;;;;;;5075970;28;20487;-82
2024/01/28 13:40:10;;;;;;;3.17;2.07;;;;;;;;;;5057587;28;20978;-81
2024/01/28 13:42:37;;;;;;;3.63;2.30;;;;;;;;;;5075473;28;20415;-81
2024/01/28 13:45:04;;;;;;;8.10;2.13;;;;;;;;;;5076438;28;20407;-81
2024/01/28 13:47:30;;;;;;;4.50;2.10;;;;;;;;;;5075437;28;20461;-81
2024/01/28 13:49:58;;;;;;;4.63;2.70;;;;;;;;;;5075519;28;20494;-82
2024/01/28 13:52:24;;;;;;;3.87;2.60;;;;;;;;;;5074923;28;20390;-81
2024/01/28 13:54:50;;;;;;;5.43;2.27;;;;;;;;;;5075585;28;20465;-81
2024/01/28 13:57:17;;;;;;;3.20;2.00;;;;;;;;;;5075270;28;20399;-82
2024/01/28 13:59:43;;;;;;;4.07;2.00;;;;;;;;;;5075328;28;20410;-81
2024/01/28 14:02:09;;;;;;;4.00;2.33;;;;;;;;;;5075274;28;20395;-82
2024/01/28 14:04:35;;;;;;;3.67;2.17;;;;;;;;;;5075035;28;20431;-82
2024/01/28 14:07:01;;;;;;;4.13;2.20;;;;;;;;;;5075372;28;20385;-81
2024/01/28 14:09:27;;;;;;;3.83;1.80;;;;;;;;;;5074967;28;20988;-82
2024/01/28 14:11:53;;;;;;;5.80;2.30;;;;;;;;;;5074853;28;20381;-82
2024/01/28 14:14:19;;;;;;;5.03;2.00;;;;;;;;;;5074678;28;20415;-82
2024/01/28 14:16:45;;;;;;;3.50;2.13;;;;;;;;;;5074773;28;21006;-83
2024/01/28 14:19:11;;;;;;;4.10;2.10;;;;;;;;;;5074917;28;20394;-81
2024/01/28 14:21:37;;;;;;;3.80;2.20;;;;;;;;;;5056652;28;20530;-83
2024/01/28 14:24:03;;;;;;;4.50;2.17;;;;;;;;;;5074927;28;20410;-82
2024/01/28 14:26:29;;;;;;;6.60;2.20;;;;;;;;;;5074511;28;20411;-82
2024/01/28 14:28:55;;;;;;;3.23;2.03;;;;;;;;;;5075345;28;20753;-81
2024/01/28 14:31:22;;;;;;;3.43;2.07;;;;;;;;;;5074734;28;20388;-81
2024/01/28 14:33:48;;;;;;;3.30;2.07;;;;;;;;;;5075136;28;20377;-81